Last 6 Hours

AM-Roundhouse Btm 6950'

15 Minute Data | America/Los_Angeles
as of 10/6/22 8:53 PM PDT
Date & Time Temp (°F) RH (%) Dew Pt (°F) Wet Bulb (°F) Wind Dir (°) Wind Spd (mph) Wind Gust (mph) WindChill (°F) Barometric Press (inHg) Latest Rain (In) SnowDepth (in) Daily Rain (In) Daily Min Temp (°F) Daily Max Temp (°F)
10/6/22 - 2045 55.8 31 25.8 41.5 SSW | 205 2.5 4.1 55.8 30.29 0.00 0.6 0.00 50.3 71.4
10/6/22 - 2030 55.7 31 25.3 41.3 SSW | 200 2.8 6.4 55.7 30.30 0.00 0.7 0.00 50.3 71.4
10/6/22 - 2015 56.8 30 25.5 41.8 SSW | 202 1.8 4.8 56.8 30.28 0.00 0.6 0.00 50.3 71.4
10/6/22 - 2000 57.6 29 25.2 42.1 SSW | 207 2.2 5.2 57.6 30.28 0.00 0.4 0.00 50.3 71.4
10/6/22 - 1945 59.3 27 25.5 43.0 S | 181 0.3 2.1 59.3 30.27 0.00 0.3 0.00 50.3 71.4
10/6/22 - 1930 60.9 26 25.4 43.7 SSW | 209 2.9 6.9 60.9 30.27 0.00 0.6 0.00 50.3 71.4
10/6/22 - 1915 62.0 26 26.4 44.4 SW | 228 2.9 6.5 62.0 30.27 0.00 0.0 0.00 50.3 71.4
10/6/22 - 1900 63.0 26 27.2 45.1 SW | 227 3.2 6.2 63.0 30.28 0.00 0.4 0.00 50.3 71.4
10/6/22 - 1845 63.1 26 27.2 45.2 SW | 229 2.2 5.7 63.1 30.28 0.00 0.6 0.00 50.3 71.4
10/6/22 - 1830 63.0 26 27.3 45.2 SSW | 209 3.0 8.0 63.0 30.26 0.00 0.7 0.00 50.3 71.4
10/6/22 - 1815 64.0 25 27.1 45.5 S | 191 3.4 7.1 64.0 30.28 0.00 0.1 0.00 50.3 71.4
10/6/22 - 1800 64.7 23 26.3 45.6 SW | 214 2.5 6.9 64.7 30.28 0.00 0.8 0.00 50.3 71.4
10/6/22 - 1745 65.3 24 27.9 46.3 SSE | 157 2.7 9.0 65.3 30.28 0.00 0.6 0.00 50.3 71.4
10/6/22 - 1730 65.9 23 26.9 46.2 S | 174 2.8 7.7 65.9 30.27 0.00 0.6 0.00 50.3 71.4
10/6/22 - 1715 66.3 23 27.0 46.4 SE | 137 0.9 4.8 66.3 30.28 0.00 0.6 0.00 50.3 71.4
10/6/22 - 1700 66.5 22 27.0 46.5 NNE | 31 2.4 8.8 66.5 30.28 0.00 0.3 0.00 50.3 71.4
10/6/22 - 1645 67.6 21 26.1 46.7 NNW | 332 3.4 8.4 67.6 30.26 0.00 0.5 0.00 50.3 71.4
10/6/22 - 1630 68.2 20 26.3 47.1 NW | 307 3.3 9.6 68.2 30.27 0.00 0.5 0.00 50.3 71.4
10/6/22 - 1615 68.5 20 25.3 46.9 NE | 44 2.1 8.8 68.5 30.28 0.00 0.6 0.00 50.3 71.4
10/6/22 - 1600 68.7 19 25.1 46.9 SE | 142 3.1 7.2 68.7 30.27 0.00 0.6 0.00 50.3 71.4
10/6/22 - 1545 70.3 20 26.8 48.0 SSE | 152 2.7 8.5 70.3 30.28 0.00 0.3 0.00 50.3 71.4
10/6/22 - 1530 68.9 20 25.7 47.2 ESE | 122 4.0 11.5 68.9 30.29 0.00 0.6 0.00 50.3 71.4
10/6/22 - 1515 70.2 19 25.7 47.7 SSE | 166 4.4 10.4 70.2 30.27 0.00 0.4 0.00 50.3 71.4
10/6/22 - 1500 68.9 19 25.3 47.1 SE | 146 5.7 13.4 68.9 30.28 0.00 1.0 0.00 50.3 71.4
Max 70.3 31 27.9 48.0 - 5.7 13.4 70.3 30.30 0.00 1.0 0.00 50.3 71.4
Avg 64.2 24 26.2 45.3 - 2.8 7.4 64.2 30.28 0.00 - - - -
Min 55.7 19 25.1 41.3 - 0.3 2.1 55.7 30.26 0.00 0.0 0.00 50.3 71.4
Total - - - - - - - - - 0.00 - - - -